sensor_id;sensor_type;location;lat;lon;timestamp;P1;durP1;ratioP1;P2;durP2;ratioP2
66966;SDS011;53900;51.468;-2.586;2023-06-24T00:00:42;10.65;;;3.10;;
66966;SDS011;53900;51.468;-2.586;2023-06-24T00:03:07;9.70;;;3.22;;
66966;SDS011;53900;51.468;-2.586;2023-06-24T00:05:33;7.90;;;2.90;;
66966;SDS011;53900;51.468;-2.586;2023-06-24T00:07:58;6.88;;;2.92;;
66966;SDS011;53900;51.468;-2.586;2023-06-24T00:10:27;11.43;;;3.22;;
66966;SDS011;53900;51.468;-2.586;2023-06-24T00:12:52;5.83;;;2.90;;
66966;SDS011;53900;51.468;-2.586;2023-06-24T00:15:17;7.40;;;2.70;;
66966;SDS011;53900;51.468;-2.586;2023-06-24T00:17:43;7.40;;;3.05;;
66966;SDS011;53900;51.468;-2.586;2023-06-24T00:20:08;5.95;;;2.92;;
66966;SDS011;53900;51.468;-2.586;2023-06-24T00:22:39;6.35;;;2.83;;
66966;SDS011;53900;51.468;-2.586;2023-06-24T00:27:34;4.35;;;2.50;;
66966;SDS011;53900;51.468;-2.586;2023-06-24T00:29:59;9.45;;;3.03;;
66966;SDS011;53900;51.468;-2.586;2023-06-24T00:32:24;6.15;;;2.95;;
66966;SDS011;53900;51.468;-2.586;2023-06-24T00:34:49;7.15;;;3.20;;
66966;SDS011;53900;51.468;-2.586;2023-06-24T00:37:15;6.68;;;2.90;;
66966;SDS011;53900;51.468;-2.586;2023-06-24T00:39:40;5.95;;;2.92;;
66966;SDS011;53900;51.468;-2.586;2023-06-24T00:42:05;10.65;;;2.65;;
66966;SDS011;53900;51.468;-2.586;2023-06-24T00:44:31;4.88;;;2.67;;
66966;SDS011;53900;51.468;-2.586;2023-06-24T00:46:56;4.28;;;2.70;;
66966;SDS011;53900;51.468;-2.586;2023-06-24T00:49:22;6.57;;;2.80;;
66966;SDS011;53900;51.468;-2.586;2023-06-24T00:51:47;6.85;;;3.00;;
66966;SDS011;53900;51.468;-2.586;2023-06-24T00:54:19;4.43;;;2.63;;
66966;SDS011;53900;51.468;-2.586;2023-06-24T00:56:44;8.73;;;3.33;;
66966;SDS011;53900;51.468;-2.586;2023-06-24T00:59:12;8.90;;;3.67;;
66966;SDS011;53900;51.468;-2.586;2023-06-24T01:01:37;5.53;;;3.10;;
66966;SDS011;53900;51.468;-2.586;2023-06-24T01:04:03;5.88;;;3.20;;
66966;SDS011;53900;51.468;-2.586;2023-06-24T01:06:28;9.80;;;3.50;;
66966;SDS011;53900;51.468;-2.586;2023-06-24T01:08:57;7.22;;;3.60;;
66966;SDS011;53900;51.468;-2.586;2023-06-24T01:11:25;7.63;;;3.25;;
66966;SDS011;53900;51.468;-2.586;2023-06-24T01:13:50;7.40;;;2.95;;
66966;SDS011;53900;51.468;-2.586;2023-06-24T01:16:22;6.63;;;3.10;;
66966;SDS011;53900;51.468;-2.586;2023-06-24T01:18:52;5.18;;;3.20;;
66966;SDS011;53900;51.468;-2.586;2023-06-24T01:21:34;5.63;;;3.17;;
66966;SDS011;53900;51.468;-2.586;2023-06-24T01:24:10;5.40;;;3.00;;
66966;SDS011;53900;51.468;-2.586;2023-06-24T01:32:34;4.03;;;2.50;;
66966;SDS011;53900;51.468;-2.586;2023-06-24T01:35:12;5.10;;;2.63;;
66966;SDS011;53900;51.468;-2.586;2023-06-24T01:37:47;6.88;;;3.10;;
66966;SDS011;53900;51.468;-2.586;2023-06-24T01:42:50;3.75;;;2.53;;
66966;SDS011;53900;51.468;-2.586;2023-06-24T01:45:21;6.95;;;2.90;;
66966;SDS011;53900;51.468;-2.586;2023-06-24T01:47:48;6.05;;;3.10;;
66966;SDS011;53900;51.468;-2.586;2023-06-24T01:50:14;6.20;;;2.78;;
66966;SDS011;53900;51.468;-2.586;2023-06-24T01:52:41;9.95;;;3.00;;
66966;SDS011;53900;51.468;-2.586;2023-06-24T01:55:08;6.30;;;3.08;;
66966;SDS011;53900;51.468;-2.586;2023-06-24T01:57:34;4.35;;;2.80;;
66966;SDS011;53900;51.468;-2.586;2023-06-24T02:00:01;4.95;;;2.53;;
66966;SDS011;53900;51.468;-2.586;2023-06-24T02:04:55;7.38;;;3.10;;
66966;SDS011;53900;51.468;-2.586;2023-06-24T02:07:21;6.35;;;2.70;;
66966;SDS011;53900;51.468;-2.586;2023-06-24T02:09:47;7.05;;;2.72;;
66966;SDS011;53900;51.468;-2.586;2023-06-24T02:12:13;7.00;;;2.90;;
66966;SDS011;53900;51.468;-2.586;2023-06-24T02:14:38;6.32;;;2.85;;
66966;SDS011;53900;51.468;-2.586;2023-06-24T02:17:04;6.43;;;3.25;;
66966;SDS011;53900;51.468;-2.586;2023-06-24T02:19:30;5.90;;;2.88;;
66966;SDS011;53900;51.468;-2.586;2023-06-24T02:21:56;8.25;;;3.20;;
66966;SDS011;53900;51.468;-2.586;2023-06-24T02:24:21;6.65;;;3.00;;
66966;SDS011;53900;51.468;-2.586;2023-06-24T02:26:47;7.28;;;3.38;;
66966;SDS011;53900;51.468;-2.586;2023-06-24T02:29:12;7.78;;;3.25;;
66966;SDS011;53900;51.468;-2.586;2023-06-24T02:31:38;8.60;;;3.20;;
66966;SDS011;53900;51.468;-2.586;2023-06-24T02:34:03;7.57;;;2.75;;
66966;SDS011;53900;51.468;-2.586;2023-06-24T02:36:28;5.55;;;3.15;;
66966;SDS011;53900;51.468;-2.586;2023-06-24T02:38:54;8.57;;;3.10;;
66966;SDS011;53900;51.468;-2.586;2023-06-24T02:41:19;6.28;;;2.90;;
66966;SDS011;53900;51.468;-2.586;2023-06-24T02:43:44;6.03;;;3.13;;
66966;SDS011;53900;51.468;-2.586;2023-06-24T02:46:09;7.30;;;2.90;;
66966;SDS011;53900;51.468;-2.586;2023-06-24T02:48:35;4.82;;;2.92;;
66966;SDS011;53900;51.468;-2.586;2023-06-24T02:51:02;6.75;;;3.10;;
66966;SDS011;53900;51.468;-2.586;2023-06-24T02:53:27;8.10;;;3.33;;
66966;SDS011;53900;51.468;-2.586;2023-06-24T02:55:52;5.45;;;3.15;;
66966;SDS011;53900;51.468;-2.586;2023-06-24T02:58:19;9.23;;;3.35;;
66966;SDS011;53900;51.468;-2.586;2023-06-24T03:00:44;9.15;;;3.50;;
66966;SDS011;53900;51.468;-2.586;2023-06-24T03:03:10;6.03;;;3.33;;
66966;SDS011;53900;51.468;-2.586;2023-06-24T03:05:35;8.95;;;3.60;;
66966;SDS011;53900;51.468;-2.586;2023-06-24T03:08:02;6.43;;;2.90;;
66966;SDS011;53900;51.468;-2.586;2023-06-24T03:10:28;5.10;;;3.05;;
66966;SDS011;53900;51.468;-2.586;2023-06-24T03:12:53;5.97;;;3.10;;
66966;SDS011;53900;51.468;-2.586;2023-06-24T03:15:19;5.47;;;3.30;;
66966;SDS011;53900;51.468;-2.586;2023-06-24T03:17:45;8.18;;;3.13;;
66966;SDS011;53900;51.468;-2.586;2023-06-24T03:20:10;8.85;;;3.40;;
66966;SDS011;53900;51.468;-2.586;2023-06-24T03:22:35;10.38;;;3.25;;
66966;SDS011;53900;51.468;-2.586;2023-06-24T03:25:01;10.73;;;3.60;;
66966;SDS011;53900;51.468;-2.586;2023-06-24T03:27:26;5.75;;;3.10;;
66966;SDS011;53900;51.468;-2.586;2023-06-24T03:29:52;5.38;;;3.15;;
66966;SDS011;53900;51.468;-2.586;2023-06-24T03:32:17;6.47;;;3.45;;
66966;SDS011;53900;51.468;-2.586;2023-06-24T03:34:42;6.15;;;3.22;;
66966;SDS011;53900;51.468;-2.586;2023-06-24T03:37:07;5.35;;;3.42;;
66966;SDS011;53900;51.468;-2.586;2023-06-24T03:39:33;5.88;;;3.13;;
66966;SDS011;53900;51.468;-2.586;2023-06-24T03:41:58;6.97;;;3.50;;
66966;SDS011;53900;51.468;-2.586;2023-06-24T03:44:23;6.47;;;3.25;;
66966;SDS011;53900;51.468;-2.586;2023-06-24T03:46:48;6.68;;;3.55;;
66966;SDS011;53900;51.468;-2.586;2023-06-24T03:49:13;7.55;;;3.70;;
66966;SDS011;53900;51.468;-2.586;2023-06-24T03:51:39;5.38;;;3.30;;
66966;SDS011;53900;51.468;-2.586;2023-06-24T03:54:04;4.43;;;3.47;;
66966;SDS011;53900;51.468;-2.586;2023-06-24T03:56:29;7.25;;;3.38;;
66966;SDS011;53900;51.468;-2.586;2023-06-24T03:58:54;6.53;;;3.40;;
66966;SDS011;53900;51.468;-2.586;2023-06-24T04:01:20;7.75;;;3.67;;
66966;SDS011;53900;51.468;-2.586;2023-06-24T04:03:45;7.07;;;3.33;;
66966;SDS011;53900;51.468;-2.586;2023-06-24T04:06:11;5.13;;;3.47;;
66966;SDS011;53900;51.468;-2.586;2023-06-24T04:08:36;6.68;;;3.17;;
66966;SDS011;53900;51.468;-2.586;2023-06-24T04:11:05;9.13;;;3.45;;
66966;SDS011;53900;51.468;-2.586;2023-06-24T04:13:31;5.60;;;3.30;;
66966;SDS011;53900;51.468;-2.586;2023-06-24T04:15:56;7.53;;;3.45;;
66966;SDS011;53900;51.468;-2.586;2023-06-24T04:18:21;7.80;;;2.73;;
66966;SDS011;53900;51.468;-2.586;2023-06-24T04:20:47;7.33;;;3.47;;
66966;SDS011;53900;51.468;-2.586;2023-06-24T04:23:12;7.53;;;3.58;;
66966;SDS011;53900;51.468;-2.586;2023-06-24T04:25:39;9.20;;;3.10;;
66966;SDS011;53900;51.468;-2.586;2023-06-24T04:28:04;9.05;;;3.67;;
66966;SDS011;53900;51.468;-2.586;2023-06-24T04:30:30;8.07;;;3.47;;
66966;SDS011;53900;51.468;-2.586;2023-06-24T04:32:55;9.50;;;3.67;;
66966;SDS011;53900;51.468;-2.586;2023-06-24T04:35:20;6.18;;;3.30;;
66966;SDS011;53900;51.468;-2.586;2023-06-24T04:37:45;9.70;;;3.40;;
66966;SDS011;53900;51.468;-2.586;2023-06-24T04:40:11;4.03;;;3.10;;
66966;SDS011;53900;51.468;-2.586;2023-06-24T04:42:37;9.80;;;3.53;;
66966;SDS011;53900;51.468;-2.586;2023-06-24T04:45:02;6.40;;;3.05;;
66966;SDS011;53900;51.468;-2.586;2023-06-24T04:47:30;6.75;;;3.20;;
66966;SDS011;53900;51.468;-2.586;2023-06-24T04:49:55;4.82;;;3.28;;
66966;SDS011;53900;51.468;-2.586;2023-06-24T04:52:21;7.38;;;3.53;;
66966;SDS011;53900;51.468;-2.586;2023-06-24T04:54:47;8.18;;;2.90;;
66966;SDS011;53900;51.468;-2.586;2023-06-24T04:57:22;6.45;;;2.90;;
66966;SDS011;53900;51.468;-2.586;2023-06-24T04:59:47;9.70;;;3.20;;
66966;SDS011;53900;51.468;-2.586;2023-06-24T05:02:13;6.40;;;3.30;;
66966;SDS011;53900;51.468;-2.586;2023-06-24T05:04:38;5.82;;;3.70;;
66966;SDS011;53900;51.468;-2.586;2023-06-24T05:07:03;5.55;;;3.53;;
66966;SDS011;53900;51.468;-2.586;2023-06-24T05:09:28;10.10;;;3.55;;
66966;SDS011;53900;51.468;-2.586;2023-06-24T05:11:53;12.88;;;4.00;;
66966;SDS011;53900;51.468;-2.586;2023-06-24T05:14:19;4.93;;;2.97;;
66966;SDS011;53900;51.468;-2.586;2023-06-24T05:16:44;6.68;;;4.05;;
66966;SDS011;53900;51.468;-2.586;2023-06-24T05:19:10;9.27;;;3.22;;
66966;SDS011;53900;51.468;-2.586;2023-06-24T05:21:35;7.07;;;3.38;;
66966;SDS011;53900;51.468;-2.586;2023-06-24T05:24:00;7.38;;;3.35;;
66966;SDS011;53900;51.468;-2.586;2023-06-24T05:26:25;11.17;;;3.90;;
66966;SDS011;53900;51.468;-2.586;2023-06-24T05:28:51;5.10;;;3.13;;
66966;SDS011;53900;51.468;-2.586;2023-06-24T05:31:16;7.28;;;3.50;;
66966;SDS011;53900;51.468;-2.586;2023-06-24T05:33:41;5.18;;;3.70;;
66966;SDS011;53900;51.468;-2.586;2023-06-24T05:36:06;6.20;;;3.47;;
66966;SDS011;53900;51.468;-2.586;2023-06-24T05:38:31;4.70;;;3.10;;
66966;SDS011;53900;51.468;-2.586;2023-06-24T05:40:57;5.45;;;3.45;;
66966;SDS011;53900;51.468;-2.586;2023-06-24T05:43:22;10.13;;;3.60;;
66966;SDS011;53900;51.468;-2.586;2023-06-24T05:45:47;9.23;;;3.45;;
66966;SDS011;53900;51.468;-2.586;2023-06-24T05:48:12;8.03;;;3.40;;
66966;SDS011;53900;51.468;-2.586;2023-06-24T05:50:39;5.90;;;3.03;;
66966;SDS011;53900;51.468;-2.586;2023-06-24T05:53:04;5.80;;;3.50;;
66966;SDS011;53900;51.468;-2.586;2023-06-24T05:55:29;7.97;;;3.47;;
66966;SDS011;53900;51.468;-2.586;2023-06-24T05:57:55;15.30;;;4.43;;
66966;SDS011;53900;51.468;-2.586;2023-06-24T06:00:20;6.68;;;3.17;;
66966;SDS011;53900;51.468;-2.586;2023-06-24T06:02:45;8.95;;;3.47;;
66966;SDS011;53900;51.468;-2.586;2023-06-24T06:05:10;8.50;;;3.67;;
66966;SDS011;53900;51.468;-2.586;2023-06-24T06:07:35;7.72;;;3.60;;
66966;SDS011;53900;51.468;-2.586;2023-06-24T06:10:04;10.07;;;3.38;;
66966;SDS011;53900;51.468;-2.586;2023-06-24T06:12:29;5.55;;;3.28;;
66966;SDS011;53900;51.468;-2.586;2023-06-24T06:14:54;6.10;;;3.50;;
66966;SDS011;53900;51.468;-2.586;2023-06-24T06:17:19;6.27;;;3.30;;
66966;SDS011;53900;51.468;-2.586;2023-06-24T06:19:44;6.50;;;2.90;;
66966;SDS011;53900;51.468;-2.586;2023-06-24T06:22:11;10.68;;;3.40;;
66966;SDS011;53900;51.468;-2.586;2023-06-24T06:24:37;6.40;;;3.58;;
66966;SDS011;53900;51.468;-2.586;2023-06-24T06:27:02;5.53;;;3.00;;
66966;SDS011;53900;51.468;-2.586;2023-06-24T06:29:27;6.20;;;3.00;;
66966;SDS011;53900;51.468;-2.586;2023-06-24T06:31:52;6.65;;;3.20;;
66966;SDS011;53900;51.468;-2.586;2023-06-24T06:34:20;4.65;;;3.10;;
66966;SDS011;53900;51.468;-2.586;2023-06-24T06:36:45;5.13;;;3.13;;
66966;SDS011;53900;51.468;-2.586;2023-06-24T06:39:10;5.67;;;2.73;;
66966;SDS011;53900;51.468;-2.586;2023-06-24T06:41:35;7.38;;;3.10;;
66966;SDS011;53900;51.468;-2.586;2023-06-24T06:44:00;7.25;;;3.33;;
66966;SDS011;53900;51.468;-2.586;2023-06-24T06:46:26;5.57;;;2.90;;
66966;SDS011;53900;51.468;-2.586;2023-06-24T06:48:51;5.40;;;2.83;;
66966;SDS011;53900;51.468;-2.586;2023-06-24T06:51:16;5.80;;;2.97;;
66966;SDS011;53900;51.468;-2.586;2023-06-24T06:53:43;5.18;;;2.85;;
66966;SDS011;53900;51.468;-2.586;2023-06-24T06:56:08;6.55;;;2.95;;
66966;SDS011;53900;51.468;-2.586;2023-06-24T06:58:34;6.88;;;2.88;;
66966;SDS011;53900;51.468;-2.586;2023-06-24T07:00:59;9.57;;;3.13;;
66966;SDS011;53900;51.468;-2.586;2023-06-24T07:03:26;4.40;;;2.80;;
66966;SDS011;53900;51.468;-2.586;2023-06-24T07:05:52;5.82;;;2.67;;
66966;SDS011;53900;51.468;-2.586;2023-06-24T07:08:18;9.50;;;2.90;;
66966;SDS011;53900;51.468;-2.586;2023-06-24T07:10:43;10.07;;;3.43;;
66966;SDS011;53900;51.468;-2.586;2023-06-24T07:13:08;6.97;;;2.83;;
66966;SDS011;53900;51.468;-2.586;2023-06-24T07:15:33;7.00;;;3.10;;
66966;SDS011;53900;51.468;-2.586;2023-06-24T07:17:59;7.15;;;3.10;;
66966;SDS011;53900;51.468;-2.586;2023-06-24T07:20:24;8.67;;;2.83;;
66966;SDS011;53900;51.468;-2.586;2023-06-24T07:22:49;5.30;;;2.70;;
66966;SDS011;53900;51.468;-2.586;2023-06-24T07:25:14;7.57;;;2.90;;
66966;SDS011;53900;51.468;-2.586;2023-06-24T07:27:39;4.55;;;2.67;;
66966;SDS011;53900;51.468;-2.586;2023-06-24T07:30:05;4.27;;;2.33;;
66966;SDS011;53900;51.468;-2.586;2023-06-24T07:32:30;9.52;;;2.90;;
66966;SDS011;53900;51.468;-2.586;2023-06-24T07:34:56;3.73;;;2.70;;
66966;SDS011;53900;51.468;-2.586;2023-06-24T07:37:21;4.57;;;2.80;;
66966;SDS011;53900;51.468;-2.586;2023-06-24T07:39:46;7.40;;;3.00;;
66966;SDS011;53900;51.468;-2.586;2023-06-24T07:42:12;4.13;;;2.70;;
66966;SDS011;53900;51.468;-2.586;2023-06-24T07:44:39;5.07;;;2.47;;
66966;SDS011;53900;51.468;-2.586;2023-06-24T07:47:04;8.95;;;2.53;;
66966;SDS011;53900;51.468;-2.586;2023-06-24T07:49:31;4.93;;;2.63;;
66966;SDS011;53900;51.468;-2.586;2023-06-24T07:51:56;5.80;;;2.78;;
66966;SDS011;53900;51.468;-2.586;2023-06-24T07:54:21;6.80;;;2.40;;
66966;SDS011;53900;51.468;-2.586;2023-06-24T07:56:46;5.28;;;2.50;;
66966;SDS011;53900;51.468;-2.586;2023-06-24T07:59:11;9.00;;;2.73;;
66966;SDS011;53900;51.468;-2.586;2023-06-24T08:01:37;3.60;;;2.27;;
66966;SDS011;53900;51.468;-2.586;2023-06-24T08:04:02;8.68;;;3.30;;
66966;SDS011;53900;51.468;-2.586;2023-06-24T08:06:27;8.38;;;3.00;;
66966;SDS011;53900;51.468;-2.586;2023-06-24T08:08:53;6.15;;;2.83;;
66966;SDS011;53900;51.468;-2.586;2023-06-24T08:11:18;5.47;;;2.80;;
66966;SDS011;53900;51.468;-2.586;2023-06-24T08:13:43;7.05;;;2.72;;
66966;SDS011;53900;51.468;-2.586;2023-06-24T08:16:08;7.70;;;2.80;;
66966;SDS011;53900;51.468;-2.586;2023-06-24T08:18:33;8.33;;;2.83;;
66966;SDS011;53900;51.468;-2.586;2023-06-24T08:20:59;6.50;;;2.42;;
66966;SDS011;53900;51.468;-2.586;2023-06-24T08:23:24;5.97;;;2.47;;
66966;SDS011;53900;51.468;-2.586;2023-06-24T08:25:49;7.00;;;2.73;;
66966;SDS011;53900;51.468;-2.586;2023-06-24T08:28:14;6.18;;;2.85;;
66966;SDS011;53900;51.468;-2.586;2023-06-24T08:30:40;7.40;;;2.78;;
66966;SDS011;53900;51.468;-2.586;2023-06-24T08:33:05;5.20;;;2.60;;
66966;SDS011;53900;51.468;-2.586;2023-06-24T08:35:30;4.47;;;2.40;;
66966;SDS011;53900;51.468;-2.586;2023-06-24T08:37:55;6.37;;;2.67;;
66966;SDS011;53900;51.468;-2.586;2023-06-24T08:40:20;6.00;;;2.93;;
66966;SDS011;53900;51.468;-2.586;2023-06-24T08:42:46;4.35;;;2.55;;
66966;SDS011;53900;51.468;-2.586;2023-06-24T08:45:11;4.53;;;2.55;;
66966;SDS011;53900;51.468;-2.586;2023-06-24T08:47:36;4.22;;;2.63;;
66966;SDS011;53900;51.468;-2.586;2023-06-24T08:50:03;5.30;;;2.60;;
66966;SDS011;53900;51.468;-2.586;2023-06-24T08:52:29;6.82;;;2.50;;
66966;SDS011;53900;51.468;-2.586;2023-06-24T08:54:55;5.75;;;3.00;;
66966;SDS011;53900;51.468;-2.586;2023-06-24T08:57:23;8.52;;;2.92;;
66966;SDS011;53900;51.468;-2.586;2023-06-24T08:59:48;6.25;;;2.92;;
66966;SDS011;53900;51.468;-2.586;2023-06-24T09:02:13;5.55;;;2.67;;
66966;SDS011;53900;51.468;-2.586;2023-06-24T09:04:39;8.38;;;2.50;;
66966;SDS011;53900;51.468;-2.586;2023-06-24T09:07:04;16.65;;;3.15;;
66966;SDS011;53900;51.468;-2.586;2023-06-24T09:09:30;5.53;;;2.60;;
66966;SDS011;53900;51.468;-2.586;2023-06-24T09:11:56;9.10;;;2.60;;
66966;SDS011;53900;51.468;-2.586;2023-06-24T09:14:22;5.75;;;2.20;;
66966;SDS011;53900;51.468;-2.586;2023-06-24T09:16:55;5.28;;;2.50;;
66966;SDS011;53900;51.468;-2.586;2023-06-24T09:19:24;7.32;;;2.70;;
66966;SDS011;53900;51.468;-2.586;2023-06-24T09:21:50;7.05;;;2.80;;
66966;SDS011;53900;51.468;-2.586;2023-06-24T09:24:16;4.28;;;2.38;;
66966;SDS011;53900;51.468;-2.586;2023-06-24T09:26:42;4.43;;;2.70;;
66966;SDS011;53900;51.468;-2.586;2023-06-24T09:29:07;5.53;;;2.70;;
66966;SDS011;53900;51.468;-2.586;2023-06-24T09:31:33;4.00;;;2.47;;
66966;SDS011;53900;51.468;-2.586;2023-06-24T09:33:58;6.50;;;2.90;;
66966;SDS011;53900;51.468;-2.586;2023-06-24T09:36:23;4.97;;;2.40;;
66966;SDS011;53900;51.468;-2.586;2023-06-24T09:38:49;3.92;;;2.65;;
66966;SDS011;53900;51.468;-2.586;2023-06-24T09:41:15;6.95;;;2.60;;
66966;SDS011;53900;51.468;-2.586;2023-06-24T09:43:41;6.15;;;2.60;;
66966;SDS011;53900;51.468;-2.586;2023-06-24T09:46:07;5.20;;;2.78;;
66966;SDS011;53900;51.468;-2.586;2023-06-24T09:48:33;4.93;;;2.40;;
66966;SDS011;53900;51.468;-2.586;2023-06-24T09:51:04;10.05;;;3.00;;
66966;SDS011;53900;51.468;-2.586;2023-06-24T09:53:30;5.80;;;2.47;;
66966;SDS011;53900;51.468;-2.586;2023-06-24T09:55:55;7.43;;;2.75;;
66966;SDS011;53900;51.468;-2.586;2023-06-24T09:58:21;5.68;;;2.28;;
66966;SDS011;53900;51.468;-2.586;2023-06-24T10:00:47;5.28;;;2.50;;
66966;SDS011;53900;51.468;-2.586;2023-06-24T10:03:13;5.65;;;2.35;;
66966;SDS011;53900;51.468;-2.586;2023-06-24T10:05:38;5.97;;;2.63;;
66966;SDS011;53900;51.468;-2.586;2023-06-24T10:08:04;6.00;;;2.80;;
66966;SDS011;53900;51.468;-2.586;2023-06-24T10:10:30;4.25;;;2.40;;
66966;SDS011;53900;51.468;-2.586;2023-06-24T10:12:55;6.63;;;2.47;;
66966;SDS011;53900;51.468;-2.586;2023-06-24T10:15:21;3.25;;;2.25;;
66966;SDS011;53900;51.468;-2.586;2023-06-24T10:17:47;5.70;;;2.38;;
66966;SDS011;53900;51.468;-2.586;2023-06-24T10:20:12;5.17;;;2.57;;
66966;SDS011;53900;51.468;-2.586;2023-06-24T10:22:37;4.97;;;2.90;;
66966;SDS011;53900;51.468;-2.586;2023-06-24T10:25:05;7.60;;;2.37;;
66966;SDS011;53900;51.468;-2.586;2023-06-24T10:27:30;5.72;;;2.53;;
66966;SDS011;53900;51.468;-2.586;2023-06-24T10:30:03;3.20;;;2.30;;
66966;SDS011;53900;51.468;-2.586;2023-06-24T10:32:38;5.07;;;2.20;;
66966;SDS011;53900;51.468;-2.586;2023-06-24T10:35:04;4.60;;;2.15;;
66966;SDS011;53900;51.468;-2.586;2023-06-24T10:37:30;3.15;;;1.98;;
66966;SDS011;53900;51.468;-2.586;2023-06-24T10:39:56;4.72;;;2.17;;
66966;SDS011;53900;51.468;-2.586;2023-06-24T10:44:54;5.32;;;2.30;;
66966;SDS011;53900;51.468;-2.586;2023-06-24T10:47:21;3.58;;;2.05;;
66966;SDS011;53900;51.468;-2.586;2023-06-24T10:49:46;3.88;;;2.30;;
66966;SDS011;53900;51.468;-2.586;2023-06-24T10:52:11;7.18;;;2.40;;
66966;SDS011;53900;51.468;-2.586;2023-06-24T10:54:37;6.03;;;2.40;;
66966;SDS011;53900;51.468;-2.586;2023-06-24T10:57:06;4.80;;;2.92;;
66966;SDS011;53900;51.468;-2.586;2023-06-24T10:59:35;4.03;;;2.50;;
66966;SDS011;53900;51.468;-2.586;2023-06-24T11:02:00;3.58;;;2.55;;
66966;SDS011;53900;51.468;-2.586;2023-06-24T11:04:26;5.93;;;2.40;;
66966;SDS011;53900;51.468;-2.586;2023-06-24T11:06:58;2.92;;;2.20;;
66966;SDS011;53900;51.468;-2.586;2023-06-24T11:09:23;9.70;;;2.70;;
66966;SDS011;53900;51.468;-2.586;2023-06-24T11:11:48;6.37;;;2.80;;
66966;SDS011;53900;51.468;-2.586;2023-06-24T11:14:15;6.67;;;2.80;;
66966;SDS011;53900;51.468;-2.586;2023-06-24T11:16:40;5.05;;;2.67;;
66966;SDS011;53900;51.468;-2.586;2023-06-24T11:19:05;5.13;;;2.80;;
66966;SDS011;53900;51.468;-2.586;2023-06-24T11:21:31;5.70;;;2.72;;
66966;SDS011;53900;51.468;-2.586;2023-06-24T11:24:02;6.60;;;2.47;;
66966;SDS011;53900;51.468;-2.586;2023-06-24T11:26:27;6.68;;;3.15;;
66966;SDS011;53900;51.468;-2.586;2023-06-24T11:28:53;6.90;;;2.60;;
66966;SDS011;53900;51.468;-2.586;2023-06-24T11:31:18;6.43;;;2.83;;
66966;SDS011;53900;51.468;-2.586;2023-06-24T11:33:47;7.97;;;2.75;;
66966;SDS011;53900;51.468;-2.586;2023-06-24T11:36:13;6.70;;;2.83;;
66966;SDS011;53900;51.468;-2.586;2023-06-24T11:38:41;9.90;;;2.70;;
66966;SDS011;53900;51.468;-2.586;2023-06-24T11:41:06;3.53;;;2.20;;
66966;SDS011;53900;51.468;-2.586;2023-06-24T11:43:32;8.02;;;2.50;;
66966;SDS011;53900;51.468;-2.586;2023-06-24T11:45:58;4.03;;;2.50;;
66966;SDS011;53900;51.468;-2.586;2023-06-24T11:48:27;3.53;;;2.50;;
66966;SDS011;53900;51.468;-2.586;2023-06-24T11:50:53;7.55;;;2.80;;
66966;SDS011;53900;51.468;-2.586;2023-06-24T11:53:22;9.20;;;2.72;;
66966;SDS011;53900;51.468;-2.586;2023-06-24T11:55:47;5.15;;;2.70;;
66966;SDS011;53900;51.468;-2.586;2023-06-24T11:58:19;7.18;;;2.50;;
66966;SDS011;53900;51.468;-2.586;2023-06-24T12:00:44;5.93;;;2.30;;
66966;SDS011;53900;51.468;-2.586;2023-06-24T12:03:12;7.88;;;2.00;;
66966;SDS011;53900;51.468;-2.586;2023-06-24T12:05:37;4.22;;;2.42;;
66966;SDS011;53900;51.468;-2.586;2023-06-24T12:08:06;4.47;;;2.33;;
66966;SDS011;53900;51.468;-2.586;2023-06-24T12:10:32;7.03;;;2.40;;
66966;SDS011;53900;51.468;-2.586;2023-06-24T12:12:58;5.43;;;2.40;;
66966;SDS011;53900;51.468;-2.586;2023-06-24T12:15:24;7.95;;;2.22;;
66966;SDS011;53900;51.468;-2.586;2023-06-24T12:17:49;3.35;;;2.08;;
66966;SDS011;53900;51.468;-2.586;2023-06-24T12:20:14;4.55;;;2.20;;
66966;SDS011;53900;51.468;-2.586;2023-06-24T12:22:40;6.22;;;2.75;;
66966;SDS011;53900;51.468;-2.586;2023-06-24T12:25:06;4.20;;;2.58;;
66966;SDS011;53900;51.468;-2.586;2023-06-24T12:27:31;4.80;;;2.03;;
66966;SDS011;53900;51.468;-2.586;2023-06-24T12:29:56;5.38;;;1.75;;
66966;SDS011;53900;51.468;-2.586;2023-06-24T12:32:21;4.90;;;1.90;;
66966;SDS011;53900;51.468;-2.586;2023-06-24T12:34:47;2.87;;;1.90;;
66966;SDS011;53900;51.468;-2.586;2023-06-24T12:37:12;3.10;;;2.00;;
66966;SDS011;53900;51.468;-2.586;2023-06-24T12:39:37;5.07;;;1.90;;
66966;SDS011;53900;51.468;-2.586;2023-06-24T12:42:02;5.13;;;2.27;;
66966;SDS011;53900;51.468;-2.586;2023-06-24T12:44:27;5.50;;;2.10;;
66966;SDS011;53900;51.468;-2.586;2023-06-24T12:46:53;8.33;;;2.60;;
66966;SDS011;53900;51.468;-2.586;2023-06-24T12:49:18;5.47;;;2.10;;
66966;SDS011;53900;51.468;-2.586;2023-06-24T12:51:43;2.33;;;1.90;;
66966;SDS011;53900;51.468;-2.586;2023-06-24T12:54:08;2.97;;;1.92;;
66966;SDS011;53900;51.468;-2.586;2023-06-24T12:56:34;4.97;;;2.00;;
66966;SDS011;53900;51.468;-2.586;2023-06-24T12:58:59;3.60;;;2.33;;
66966;SDS011;53900;51.468;-2.586;2023-06-24T13:01:24;5.97;;;2.27;;
66966;SDS011;53900;51.468;-2.586;2023-06-24T13:03:49;5.07;;;2.20;;
66966;SDS011;53900;51.468;-2.586;2023-06-24T13:06:14;5.35;;;2.60;;
66966;SDS011;53900;51.468;-2.586;2023-06-24T13:08:40;4.18;;;2.15;;
66966;SDS011;53900;51.468;-2.586;2023-06-24T13:11:05;3.97;;;2.37;;
66966;SDS011;53900;51.468;-2.586;2023-06-24T13:13:30;4.50;;;2.67;;
66966;SDS011;53900;51.468;-2.586;2023-06-24T13:15:55;6.27;;;2.40;;
66966;SDS011;53900;51.468;-2.586;2023-06-24T13:18:20;5.47;;;2.50;;
66966;SDS011;53900;51.468;-2.586;2023-06-24T13:20:46;4.82;;;2.53;;
66966;SDS011;53900;51.468;-2.586;2023-06-24T13:23:11;7.18;;;2.38;;
66966;SDS011;53900;51.468;-2.586;2023-06-24T13:25:36;3.33;;;1.80;;
66966;SDS011;53900;51.468;-2.586;2023-06-24T13:28:01;2.95;;;1.52;;
66966;SDS011;53900;51.468;-2.586;2023-06-24T13:30:27;4.07;;;1.70;;
66966;SDS011;53900;51.468;-2.586;2023-06-24T13:32:52;3.50;;;1.73;;
66966;SDS011;53900;51.468;-2.586;2023-06-24T13:35:17;5.22;;;2.50;;
66966;SDS011;53900;51.468;-2.586;2023-06-24T13:37:42;4.33;;;2.10;;
66966;SDS011;53900;51.468;-2.586;2023-06-24T13:40:08;9.18;;;2.30;;
66966;SDS011;53900;51.468;-2.586;2023-06-24T13:42:34;4.72;;;1.98;;
66966;SDS011;53900;51.468;-2.586;2023-06-24T13:44:59;5.63;;;2.17;;
66966;SDS011;53900;51.468;-2.586;2023-06-24T13:47:24;4.23;;;2.13;;
66966;SDS011;53900;51.468;-2.586;2023-06-24T13:49:49;7.43;;;2.15;;
66966;SDS011;53900;51.468;-2.586;2023-06-24T13:52:15;3.67;;;1.80;;
66966;SDS011;53900;51.468;-2.586;2023-06-24T13:54:40;4.17;;;1.53;;
66966;SDS011;53900;51.468;-2.586;2023-06-24T13:57:05;3.20;;;1.73;;
66966;SDS011;53900;51.468;-2.586;2023-06-24T13:59:30;3.05;;;1.98;;
66966;SDS011;53900;51.468;-2.586;2023-06-24T14:01:55;3.13;;;2.40;;
66966;SDS011;53900;51.468;-2.586;2023-06-24T14:04:21;3.83;;;1.88;;
66966;SDS011;53900;51.468;-2.586;2023-06-24T14:06:46;7.13;;;2.10;;
66966;SDS011;53900;51.468;-2.586;2023-06-24T14:09:12;3.00;;;1.83;;
66966;SDS011;53900;51.468;-2.586;2023-06-24T14:11:37;6.05;;;2.22;;
66966;SDS011;53900;51.468;-2.586;2023-06-24T14:14:02;4.77;;;2.30;;
66966;SDS011;53900;51.468;-2.586;2023-06-24T14:16:27;4.43;;;2.20;;
66966;SDS011;53900;51.468;-2.586;2023-06-24T14:18:53;4.25;;;2.20;;
66966;SDS011;53900;51.468;-2.586;2023-06-24T14:21:18;3.97;;;2.17;;
66966;SDS011;53900;51.468;-2.586;2023-06-24T14:23:43;7.87;;;2.00;;
66966;SDS011;53900;51.468;-2.586;2023-06-24T14:26:09;3.33;;;1.70;;
66966;SDS011;53900;51.468;-2.586;2023-06-24T14:28:34;1.95;;;1.50;;
66966;SDS011;53900;51.468;-2.586;2023-06-24T14:30:59;3.58;;;1.80;;
66966;SDS011;53900;51.468;-2.586;2023-06-24T14:33:25;4.88;;;1.60;;
66966;SDS011;53900;51.468;-2.586;2023-06-24T14:35:50;1.98;;;1.50;;
66966;SDS011;53900;51.468;-2.586;2023-06-24T14:38:16;2.55;;;1.40;;
66966;SDS011;53900;51.468;-2.586;2023-06-24T14:40:41;4.18;;;1.63;;